createdAt,value
2023-02-26T00:01:46.869Z,96.40
2023-02-26T00:04:14.357Z,96.50
2023-02-26T00:06:42.682Z,96.80
2023-02-26T00:09:10.210Z,96.80
2023-02-26T00:11:38.494Z,97.00
2023-02-26T00:14:06.108Z,97.00
2023-02-26T00:16:33.879Z,97.10
2023-02-26T00:19:02.111Z,97.20
2023-02-26T00:21:30.033Z,97.20
2023-02-26T00:23:57.566Z,96.70
2023-02-26T00:26:25.148Z,96.20
2023-02-26T00:28:52.945Z,96.30
2023-02-26T00:31:21.414Z,96.70
2023-02-26T00:33:48.840Z,96.70
2023-02-26T00:36:26.029Z,96.80
2023-02-26T00:39:14.618Z,97.00
2023-02-26T00:41:43.418Z,97.10
2023-02-26T00:44:09.896Z,97.40
2023-02-26T00:46:47.305Z,97.60
2023-02-26T00:49:24.452Z,97.80
2023-02-26T00:52:00.874Z,97.70
2023-02-26T00:54:28.404Z,97.90
2023-02-26T00:56:55.944Z,98.10
2023-02-26T00:59:23.505Z,98.30
2023-02-26T01:01:51.078Z,98.40
2023-02-26T01:04:18.651Z,98.50
2023-02-26T01:06:49.850Z,98.50
2023-02-26T01:09:29.222Z,98.50
2023-02-26T01:11:56.797Z,98.50
2023-02-26T01:14:25.143Z,98.90
2023-02-26T01:17:23.420Z,98.90
2023-02-26T01:19:53.909Z,99.10
2023-02-26T01:22:54.912Z,99.20
2023-02-26T01:25:26.147Z,99.40
2023-02-26T01:27:53.690Z,99.10
2023-02-26T01:30:21.392Z,99.20
2023-02-26T01:32:57.789Z,99.30
2023-02-26T01:35:40.116Z,99.40
2023-02-26T01:38:22.676Z,98.90
2023-02-26T01:41:06.031Z,98.60
2023-02-26T01:43:36.235Z,98.50
2023-02-26T01:46:09.673Z,98.80
2023-02-26T01:48:55.999Z,99.40
2023-02-26T01:51:47.614Z,99.30
2023-02-26T01:54:15.204Z,99.70
2023-02-26T01:56:43.517Z,99.90
2023-02-26T01:59:11.048Z,99.90
2023-02-26T02:01:39.386Z,99.90
2023-02-26T02:04:06.921Z,99.90
2023-02-26T02:06:34.565Z,99.90
2023-02-26T02:09:02.130Z,99.90
2023-02-26T02:11:29.653Z,99.90
2023-02-26T02:14:12.911Z,99.90
2023-02-26T02:16:58.031Z,99.90
2023-02-26T02:19:34.359Z,99.90
2023-02-26T02:22:32.412Z,99.90
2023-02-26T02:25:08.679Z,99.90
2023-02-26T02:27:36.263Z,99.90
2023-02-26T02:30:25.558Z,99.90
2023-02-26T02:32:53.127Z,99.90
2023-02-26T02:35:23.649Z,99.90
2023-02-26T02:37:54.000Z,99.90
2023-02-26T02:40:21.534Z,99.90
2023-02-26T02:42:52.499Z,99.90
2023-02-26T02:45:20.051Z,99.90
2023-02-26T02:47:47.595Z,99.90
2023-02-26T02:50:15.900Z,99.90
2023-02-26T02:52:49.478Z,99.90
2023-02-26T02:55:17.793Z,99.90
2023-02-26T02:57:51.058Z,99.90
2023-02-26T03:00:19.380Z,99.90
2023-02-26T03:02:53.030Z,99.90
2023-02-26T03:05:21.163Z,99.90
2023-02-26T03:07:52.048Z,99.90
2023-02-26T03:10:20.363Z,99.90
2023-02-26T03:12:47.884Z,99.90
2023-02-26T03:15:15.441Z,99.90
2023-02-26T03:17:52.662Z,99.90
2023-02-26T03:20:20.544Z,99.90
2023-02-26T03:23:05.904Z,99.90
2023-02-26T03:25:38.825Z,99.90
2023-02-26T03:28:24.445Z,99.90
2023-02-26T03:30:57.850Z,99.90
2023-02-26T03:33:34.543Z,99.90
2023-02-26T03:36:11.237Z,99.90
2023-02-26T03:38:38.776Z,99.90
2023-02-26T03:41:09.434Z,99.90
2023-02-26T03:43:39.936Z,99.90
2023-02-26T03:46:07.496Z,99.90
2023-02-26T03:48:35.770Z,99.90
2023-02-26T03:51:03.317Z,99.90
2023-02-26T03:53:39.875Z,99.90
2023-02-26T03:56:08.194Z,99.90
2023-02-26T03:58:35.734Z,99.90
2023-02-26T04:01:09.398Z,99.90
2023-02-26T04:03:37.706Z,99.90
2023-02-26T04:06:05.251Z,99.90
2023-02-26T04:08:32.799Z,99.90
2023-02-26T04:11:01.118Z,99.90
2023-02-26T04:13:28.668Z,99.90
2023-02-26T04:15:56.193Z,99.90
2023-02-26T04:18:24.543Z,99.90
2023-02-26T04:20:52.048Z,99.90
2023-02-26T04:23:19.590Z,99.90
2023-02-26T04:25:47.145Z,99.90
2023-02-26T04:28:15.470Z,99.90
2023-02-26T04:30:43.006Z,99.90
2023-02-26T04:33:11.290Z,99.90
2023-02-26T04:35:38.845Z,99.90
2023-02-26T04:38:06.369Z,99.90
2023-02-26T04:40:34.680Z,99.90
2023-02-26T04:43:02.225Z,99.90
2023-02-26T04:45:29.759Z,99.90
2023-02-26T04:47:58.111Z,99.90
2023-02-26T04:50:25.655Z,99.90
2023-02-26T04:52:53.213Z,99.90
2023-02-26T04:55:20.772Z,99.90
2023-02-26T04:57:48.299Z,99.90
2023-02-26T05:00:15.936Z,99.90
2023-02-26T05:02:44.286Z,99.90
2023-02-26T05:05:11.807Z,99.90
2023-02-26T05:07:39.359Z,99.90
2023-02-26T05:10:07.056Z,99.90
2023-02-26T05:12:34.582Z,99.90
2023-02-26T05:15:02.141Z,99.90
2023-02-26T05:17:29.706Z,99.90
2023-02-26T05:19:57.231Z,99.90
2023-02-26T05:22:25.529Z,99.90
2023-02-26T05:24:53.085Z,99.90
2023-02-26T05:27:20.613Z,99.90
2023-02-26T05:29:48.134Z,99.90
2023-02-26T05:32:16.043Z,99.90
2023-02-26T05:34:43.524Z,99.90
2023-02-26T05:37:11.062Z,99.90
2023-02-26T05:39:38.596Z,99.90
2023-02-26T05:42:06.128Z,99.90
2023-02-26T05:44:33.671Z,99.90
2023-02-26T05:47:01.393Z,99.90
2023-02-26T05:49:28.888Z,99.90
2023-02-26T05:51:56.427Z,99.90
2023-02-26T05:54:25.276Z,99.90
2023-02-26T05:56:52.830Z,99.90
2023-02-26T05:59:20.378Z,99.90
2023-02-26T06:01:47.986Z,99.90
2023-02-26T06:04:15.462Z,99.90
2023-02-26T06:06:42.992Z,99.90
2023-02-26T06:09:10.553Z,99.90
2023-02-26T06:11:38.085Z,99.90
2023-02-26T06:14:05.621Z,99.90
2023-02-26T06:16:33.449Z,99.90
2023-02-26T06:19:00.916Z,99.90
2023-02-26T06:21:29.220Z,99.90
2023-02-26T06:23:57.167Z,99.90
2023-02-26T06:26:25.247Z,99.90
2023-02-26T06:28:53.003Z,99.90
2023-02-26T06:31:20.653Z,99.90
2023-02-26T06:33:48.150Z,99.90
2023-02-26T06:36:15.686Z,99.90
2023-02-26T06:38:43.257Z,99.90
2023-02-26T06:41:10.781Z,99.90
2023-02-26T06:43:39.093Z,99.90
2023-02-26T06:46:06.706Z,99.90
2023-02-26T06:48:34.188Z,99.90
2023-02-26T06:51:01.721Z,99.90
2023-02-26T06:53:29.287Z,99.90
2023-02-26T06:55:56.827Z,99.90
2023-02-26T06:58:24.380Z,99.90
2023-02-26T07:00:51.969Z,99.90
2023-02-26T07:03:19.464Z,99.90
2023-02-26T07:05:46.990Z,99.90
2023-02-26T07:08:15.354Z,99.90
2023-02-26T07:10:42.883Z,99.90
2023-02-26T07:13:10.468Z,99.90
2023-02-26T07:15:38.041Z,99.90
2023-02-26T07:18:06.386Z,99.90
2023-02-26T07:20:33.869Z,99.90
2023-02-26T07:23:01.817Z,99.90
2023-02-26T07:25:29.362Z,99.90
2023-02-26T07:27:56.907Z,99.90
2023-02-26T07:30:24.540Z,99.90
2023-02-26T07:32:52.039Z,99.90
2023-02-26T07:35:19.568Z,99.90
2023-02-26T07:37:47.141Z,99.90
2023-02-26T07:40:14.685Z,99.90
2023-02-26T07:42:42.249Z,99.90
2023-02-26T07:45:11.446Z,99.90
2023-02-26T07:47:38.998Z,99.90
2023-02-26T07:50:06.684Z,99.90
2023-02-26T07:52:34.257Z,99.90
2023-02-26T07:55:01.790Z,99.90
2023-02-26T07:57:29.327Z,99.90
2023-02-26T07:59:56.899Z,99.90
2023-02-26T08:02:24.437Z,99.90
2023-02-26T08:04:52.718Z,99.90
2023-02-26T08:07:20.272Z,99.90
2023-02-26T08:09:48.553Z,99.90
2023-02-26T08:12:16.089Z,99.90
2023-02-26T08:14:44.827Z,99.90
2023-02-26T08:17:12.354Z,99.90
2023-02-26T08:19:39.879Z,99.90
2023-02-26T08:22:07.443Z,99.90
2023-02-26T08:24:34.997Z,99.90
2023-02-26T08:27:02.522Z,99.90
2023-02-26T08:29:30.086Z,99.90
2023-02-26T08:31:57.747Z,99.90
2023-02-26T08:34:25.185Z,99.90
2023-02-26T08:36:53.774Z,99.90
2023-02-26T08:39:21.303Z,99.90
2023-02-26T08:41:49.595Z,99.90
2023-02-26T08:44:17.173Z,99.90
2023-02-26T08:46:44.805Z,99.90
2023-02-26T08:49:12.244Z,99.90
2023-02-26T08:51:40.873Z,99.60
2023-02-26T08:54:08.406Z,99.30
2023-02-26T08:56:36.720Z,98.80
2023-02-26T08:59:05.088Z,98.80
2023-02-26T09:01:32.703Z,98.90
2023-02-26T09:04:00.208Z,98.30
2023-02-26T09:06:28.434Z,98.30
2023-02-26T09:08:55.628Z,98.30
2023-02-26T09:11:23.313Z,98.20
2023-02-26T09:13:50.710Z,97.80
2023-02-26T09:16:19.033Z,97.70
2023-02-26T09:18:47.311Z,96.90
2023-02-26T09:21:15.157Z,96.90
2023-02-26T09:23:42.671Z,96.10
2023-02-26T09:26:10.227Z,95.60
2023-02-26T09:28:37.870Z,95.40
2023-02-26T09:31:05.479Z,95.50
2023-02-26T09:33:33.748Z,95.40
2023-02-26T09:36:01.283Z,95.40
2023-02-26T09:38:28.800Z,95.30
2023-02-26T09:41:30.055Z,95.70
2023-02-26T09:44:12.600Z,95.50
2023-02-26T09:46:42.907Z,95.40
2023-02-26T09:49:34.218Z,95.50
2023-02-26T09:52:16.410Z,95.20
2023-02-26T09:54:46.875Z,95.10
2023-02-26T09:57:14.420Z,94.60
2023-02-26T09:59:43.098Z,94.60
2023-02-26T10:02:19.080Z,94.80
2023-02-26T10:04:49.976Z,95.10
2023-02-26T10:07:29.539Z,94.70
2023-02-26T10:10:09.590Z,94.80
2023-02-26T10:12:37.134Z,94.60
2023-02-26T10:15:19.676Z,95.10
2023-02-26T10:17:50.341Z,92.70
2023-02-26T10:20:33.301Z,91.20
2023-02-26T10:23:12.580Z,90.70
2023-02-26T10:25:59.536Z,91.30
2023-02-26T10:28:48.766Z,91.30
2023-02-26T10:31:28.091Z,91.10
2023-02-26T10:34:00.702Z,90.90
2023-02-26T10:36:31.204Z,90.60
2023-02-26T10:38:59.612Z,90.90
2023-02-26T10:41:27.399Z,90.90
2023-02-26T10:43:57.326Z,90.40
2023-02-26T10:46:30.438Z,89.10
2023-02-26T10:49:01.749Z,89.00
2023-02-26T10:51:32.255Z,89.00
2023-02-26T10:54:05.777Z,88.40
2023-02-26T10:56:33.302Z,85.80
2023-02-26T10:59:00.836Z,84.20
2023-02-26T11:01:29.433Z,82.80
2023-02-26T11:04:08.955Z,82.80
2023-02-26T11:06:41.082Z,81.80
2023-02-26T11:09:14.340Z,82.30
2023-02-26T11:11:54.721Z,81.40
2023-02-26T11:14:22.418Z,80.30
2023-02-26T11:16:49.755Z,78.10
2023-02-26T11:19:17.538Z,78.10
2023-02-26T11:21:45.063Z,78.30
2023-02-26T11:24:27.908Z,78.50
2023-02-26T11:26:55.450Z,77.40
2023-02-26T11:29:22.986Z,78.20
2023-02-26T11:31:54.246Z,78.80
2023-02-26T11:34:24.392Z,76.20
2023-02-26T11:36:51.985Z,74.50
2023-02-26T11:39:19.552Z,74.10
2023-02-26T11:41:47.847Z,74.30
2023-02-26T11:44:20.938Z,74.30
2023-02-26T11:46:54.360Z,73.70
2023-02-26T11:49:21.934Z,74.40
2023-02-26T11:51:49.447Z,74.50
2023-02-26T11:54:23.370Z,74.40
2023-02-26T11:56:50.887Z,73.60
2023-02-26T11:59:19.179Z,73.20
2023-02-26T12:01:47.050Z,72.80
2023-02-26T12:04:14.579Z,72.10
2023-02-26T12:06:42.866Z,73.00
2023-02-26T12:09:11.247Z,72.90
2023-02-26T12:12:06.961Z,72.30
2023-02-26T12:14:59.701Z,72.50
2023-02-26T12:17:35.813Z,72.40
2023-02-26T12:20:21.643Z,71.60
2023-02-26T12:22:49.167Z,72.40
2023-02-26T12:25:22.210Z,72.20
2023-02-26T12:28:01.358Z,72.70
2023-02-26T12:30:47.300Z,72.20
2023-02-26T12:33:15.228Z,72.20
2023-02-26T12:35:48.397Z,73.40
2023-02-26T12:38:47.016Z,73.40
2023-02-26T12:41:23.881Z,73.40
2023-02-26T12:43:52.202Z,72.70
2023-02-26T12:46:19.782Z,72.60
2023-02-26T12:49:03.054Z,74.60
2023-02-26T12:51:51.571Z,74.10
2023-02-26T12:54:21.837Z,74.00
2023-02-26T12:57:01.336Z,74.40
2023-02-26T12:59:35.698Z,73.50
2023-02-26T13:02:12.040Z,73.30
2023-02-26T13:05:16.828Z,73.20
2023-02-26T13:07:55.904Z,72.80
2023-02-26T13:10:35.248Z,73.40
2023-02-26T13:13:11.537Z,73.30
2023-02-26T13:15:54.336Z,72.10
2023-02-26T13:18:46.154Z,72.40
2023-02-26T13:21:26.201Z,71.80
2023-02-26T13:23:55.862Z,71.00
2023-02-26T13:26:23.386Z,70.70
2023-02-26T13:29:00.075Z,71.50
2023-02-26T13:31:36.656Z,73.30
2023-02-26T13:34:06.886Z,73.10
2023-02-26T13:36:35.436Z,72.90
2023-02-26T13:39:20.584Z,73.30
2023-02-26T13:42:06.543Z,73.80
2023-02-26T13:44:46.775Z,74.30
2023-02-26T13:47:38.679Z,74.20
2023-02-26T13:50:43.055Z,73.20
2023-02-26T13:53:32.920Z,70.30
2023-02-26T13:56:06.705Z,70.30
2023-02-26T13:58:40.422Z,69.90
2023-02-26T14:01:08.041Z,70.60
2023-02-26T14:03:41.932Z,71.20
2023-02-26T14:06:21.538Z,72.00
2023-02-26T14:08:49.662Z,71.10
2023-02-26T14:11:44.575Z,70.70
2023-02-26T14:14:17.756Z,70.80
2023-02-26T14:16:45.316Z,71.40
2023-02-26T14:19:13.618Z,69.60
2023-02-26T14:21:50.036Z,69.60
2023-02-26T14:24:17.577Z,68.80
2023-02-26T14:26:45.090Z,69.60
2023-02-26T14:29:15.570Z,70.30
2023-02-26T14:31:55.510Z,70.70
2023-02-26T14:34:23.736Z,70.40
2023-02-26T14:36:54.328Z,70.40
2023-02-26T14:39:24.769Z,70.70
2023-02-26T14:41:52.342Z,71.10
2023-02-26T14:44:19.866Z,71.80
2023-02-26T14:46:48.160Z,73.10
2023-02-26T14:49:18.446Z,73.10
2023-02-26T14:52:19.446Z,72.60
2023-02-26T14:55:15.266Z,71.30
2023-02-26T14:57:54.277Z,70.90
2023-02-26T15:00:43.748Z,70.90
2023-02-26T15:03:13.965Z,71.50
2023-02-26T15:05:44.742Z,71.40
2023-02-26T15:08:21.611Z,71.30
2023-02-26T15:10:52.173Z,72.00
2023-02-26T15:13:40.654Z,70.60
2023-02-26T15:16:20.629Z,70.30
2023-02-26T15:19:15.251Z,70.20
2023-02-26T15:22:04.596Z,70.60
2023-02-26T15:24:32.160Z,70.50
2023-02-26T15:26:59.716Z,70.90
2023-02-26T15:29:27.250Z,71.00
2023-02-26T15:31:54.993Z,71.20
2023-02-26T15:34:22.389Z,71.50
2023-02-26T15:36:52.676Z,70.50
2023-02-26T15:39:18.267Z,68.10
2023-02-26T15:41:48.649Z,68.10
2023-02-26T15:44:18.625Z,66.50
2023-02-26T15:46:47.123Z,65.40
2023-02-26T15:49:14.570Z,65.40
2023-02-26T15:51:42.916Z,66.00
2023-02-26T15:54:10.841Z,65.90
2023-02-26T15:56:38.374Z,66.60
2023-02-26T15:59:12.122Z,66.70
2023-02-26T16:01:39.728Z,66.70
2023-02-26T16:04:07.226Z,66.70
2023-02-26T16:06:37.919Z,66.80
2023-02-26T16:09:06.255Z,67.10
2023-02-26T16:11:33.795Z,67.10
2023-02-26T16:14:01.328Z,67.30
2023-02-26T16:16:30.257Z,66.80
2023-02-26T16:18:57.189Z,66.80
2023-02-26T16:21:24.710Z,67.00
2023-02-26T16:23:53.053Z,67.20
2023-02-26T16:26:23.485Z,67.10
2023-02-26T16:28:50.849Z,67.30
2023-02-26T16:31:21.371Z,67.60
2023-02-26T16:33:58.265Z,68.50
2023-02-26T16:36:32.331Z,67.80
2023-02-26T16:39:05.816Z,68.30
2023-02-26T16:41:35.876Z,68.80
2023-02-26T16:44:06.250Z,71.10
2023-02-26T16:46:43.052Z,70.70
2023-02-26T16:49:11.357Z,70.70
2023-02-26T16:51:39.310Z,70.70
2023-02-26T16:54:06.446Z,71.20
2023-02-26T16:56:34.019Z,71.40
2023-02-26T16:59:13.284Z,71.40
2023-02-26T17:01:41.604Z,70.10
2023-02-26T17:04:09.179Z,70.00
2023-02-26T17:06:36.692Z,69.80
2023-02-26T17:09:04.253Z,69.70
2023-02-26T17:11:31.788Z,69.40
2023-02-26T17:14:19.848Z,69.70
2023-02-26T17:16:47.428Z,70.20
2023-02-26T17:19:14.933Z,70.90
2023-02-26T17:21:42.549Z,70.80
2023-02-26T17:24:10.092Z,71.20
2023-02-26T17:26:37.630Z,71.70
2023-02-26T17:29:05.968Z,71.70
2023-02-26T17:31:33.557Z,71.60
2023-02-26T17:34:01.074Z,72.00
2023-02-26T17:36:29.229Z,72.50
2023-02-26T17:38:56.763Z,72.90
2023-02-26T17:41:25.632Z,73.50
2023-02-26T17:43:52.658Z,73.50
2023-02-26T17:46:20.214Z,73.70
2023-02-26T17:48:47.742Z,73.90
2023-02-26T17:51:16.150Z,74.20
2023-02-26T17:53:42.894Z,74.50
2023-02-26T17:56:16.572Z,74.70
2023-02-26T17:58:44.155Z,74.90
2023-02-26T18:01:11.721Z,76.20
2023-02-26T18:03:39.228Z,75.60
2023-02-26T18:06:06.812Z,75.50
2023-02-26T18:08:34.367Z,75.70
2023-02-26T18:11:02.637Z,76.20
2023-02-26T18:13:30.559Z,76.10
2023-02-26T18:15:58.068Z,76.40
2023-02-26T18:18:25.643Z,77.80
2023-02-26T18:20:53.222Z,77.30
2023-02-26T18:23:20.785Z,77.30
2023-02-26T18:25:48.327Z,77.40
2023-02-26T18:28:15.896Z,77.60
2023-02-26T18:30:43.545Z,77.20
2023-02-26T18:33:10.996Z,77.20
2023-02-26T18:35:38.555Z,77.80
2023-02-26T18:38:06.119Z,77.40
2023-02-26T18:40:33.666Z,77.50
2023-02-26T18:43:01.243Z,77.70
2023-02-26T18:45:28.786Z,78.00
2023-02-26T18:47:56.314Z,78.20
2023-02-26T18:50:24.637Z,78.80
2023-02-26T18:52:52.194Z,78.80
2023-02-26T18:55:19.706Z,79.10
2023-02-26T18:57:48.078Z,79.60
2023-02-26T19:00:15.636Z,79.60
2023-02-26T19:02:43.172Z,79.80
2023-02-26T19:05:10.742Z,80.10
2023-02-26T19:07:38.297Z,80.40
2023-02-26T19:10:05.861Z,80.10
2023-02-26T19:12:33.428Z,80.50
2023-02-26T19:15:00.968Z,80.80
2023-02-26T19:17:28.525Z,80.60
2023-02-26T19:19:56.879Z,80.90
2023-02-26T19:22:24.406Z,81.20
2023-02-26T19:24:52.691Z,80.90
2023-02-26T19:27:20.251Z,80.90
2023-02-26T19:29:47.800Z,81.20
2023-02-26T19:32:16.281Z,82.70
2023-02-26T19:34:43.679Z,81.90
2023-02-26T19:37:11.222Z,82.40
2023-02-26T19:39:38.747Z,82.70
2023-02-26T19:42:06.338Z,83.10
2023-02-26T19:44:33.864Z,82.80
2023-02-26T19:47:02.158Z,83.20
2023-02-26T19:49:29.735Z,83.20
2023-02-26T19:51:57.278Z,83.40
2023-02-26T19:54:24.812Z,83.60
2023-02-26T19:56:53.170Z,84.10
2023-02-26T19:59:20.702Z,84.10
2023-02-26T20:01:48.227Z,84.30
2023-02-26T20:04:15.787Z,84.40
2023-02-26T20:06:43.403Z,84.60
2023-02-26T20:09:10.940Z,84.80
2023-02-26T20:11:38.546Z,86.00
2023-02-26T20:14:06.840Z,84.90
2023-02-26T20:16:34.351Z,84.80
2023-02-26T20:19:01.976Z,84.80
2023-02-26T20:21:29.582Z,84.80
2023-02-26T20:23:57.043Z,84.80
2023-02-26T20:26:24.683Z,84.40
2023-02-26T20:28:52.182Z,84.40
2023-02-26T20:31:20.547Z,84.60
2023-02-26T20:33:48.106Z,84.60
2023-02-26T20:36:15.579Z,84.60
2023-02-26T20:38:43.159Z,84.70
2023-02-26T20:41:10.708Z,84.70
2023-02-26T20:43:38.238Z,84.70
2023-02-26T20:46:05.782Z,84.40
2023-02-26T20:48:34.312Z,84.40
2023-02-26T20:51:01.869Z,84.30
2023-02-26T20:53:29.384Z,84.20
2023-02-26T20:55:57.543Z,84.20
2023-02-26T20:58:25.056Z,84.00
2023-02-26T21:00:52.636Z,83.90
2023-02-26T21:03:20.943Z,83.70
2023-02-26T21:05:48.477Z,83.60
2023-02-26T21:08:16.004Z,83.50
2023-02-26T21:10:43.568Z,83.30
2023-02-26T21:13:11.105Z,83.30
2023-02-26T21:15:39.393Z,83.30
2023-02-26T21:18:06.997Z,83.30
2023-02-26T21:20:34.512Z,83.30
2023-02-26T21:23:02.050Z,83.50
2023-02-26T21:25:29.604Z,83.60
2023-02-26T21:27:57.148Z,83.70
2023-02-26T21:30:24.673Z,83.70
2023-02-26T21:32:52.252Z,83.90
2023-02-26T21:35:19.772Z,84.10
2023-02-26T21:37:47.315Z,84.20
2023-02-26T21:40:15.716Z,84.50
2023-02-26T21:42:43.251Z,84.50
2023-02-26T21:45:11.539Z,84.60
2023-02-26T21:47:40.113Z,84.60
2023-02-26T21:50:08.454Z,84.70
2023-02-26T21:52:36.001Z,84.70
2023-02-26T21:55:03.536Z,84.80
2023-02-26T21:57:31.059Z,84.90
2023-02-26T21:59:59.393Z,85.40
2023-02-26T22:02:27.007Z,85.20
2023-02-26T22:04:54.547Z,85.40
2023-02-26T22:07:22.079Z,85.50
2023-02-26T22:09:49.644Z,85.70
2023-02-26T22:12:17.167Z,85.70
2023-02-26T22:14:44.710Z,85.90
2023-02-26T22:17:12.278Z,86.00
2023-02-26T22:19:39.827Z,86.10
2023-02-26T22:22:08.120Z,86.40
2023-02-26T22:24:35.673Z,86.30
2023-02-26T22:27:03.211Z,86.50
2023-02-26T22:29:31.513Z,86.70
2023-02-26T22:31:59.159Z,86.70
2023-02-26T22:34:26.616Z,86.80
2023-02-26T22:36:54.131Z,86.80
2023-02-26T22:39:21.707Z,86.90
2023-02-26T22:41:49.243Z,87.00
2023-02-26T22:44:16.779Z,87.00
2023-02-26T22:46:44.760Z,87.00
2023-02-26T22:49:12.279Z,87.00
2023-02-26T22:51:39.804Z,87.10
2023-02-26T22:54:07.400Z,87.20
2023-02-26T22:56:34.983Z,87.20
2023-02-26T22:59:02.478Z,87.40
2023-02-26T23:01:30.084Z,87.50
2023-02-26T23:03:58.375Z,87.00
2023-02-26T23:06:25.909Z,87.60
2023-02-26T23:08:53.496Z,87.60
2023-02-26T23:11:21.037Z,87.60
2023-02-26T23:13:48.611Z,87.70
2023-02-26T23:16:16.256Z,87.80
2023-02-26T23:18:43.736Z,87.90
2023-02-26T23:21:11.253Z,88.00
2023-02-26T23:23:39.585Z,87.80
2023-02-26T23:26:07.120Z,87.70
2023-02-26T23:28:34.664Z,87.80
2023-02-26T23:31:02.367Z,87.90
2023-02-26T23:33:29.799Z,88.00
2023-02-26T23:35:57.353Z,88.10
2023-02-26T23:38:24.919Z,88.10
2023-02-26T23:40:52.438Z,88.20
2023-02-26T23:43:20.731Z,88.30
2023-02-26T23:45:49.121Z,88.30
2023-02-26T23:48:16.646Z,88.30
2023-02-26T23:50:44.929Z,88.40
2023-02-26T23:53:13.271Z,88.40
2023-02-26T23:55:40.824Z,88.30
2023-02-26T23:58:08.348Z,88.40
